Atkinson, New Hampshire
Current Conditions -  °F | °C
As of 8:54 PM on Friday 19 Dec 2014 (Local Time) from KLWM Reporting Station
Clear Clear  
Wind Chill: 23°   Ceiling: Unl
Heat Index: 28°   Visibility: 10mi
Dew Point: 20°   Wind: 5mph
Humidity: 72%   Direction: 330°NNW
Pressure: 30.11"   Gusts: NA
Location:  42.84°N, 71.15°W
Report Text: KLWM 200154Z 33004KT 10SM CLR M02/M07 A3011 RMK AO2 SLP199 T10221067
Loading
Personal Weather Stations






























Interactive Weather Map New forecast layout! Learn more

10-Day Weather Forecast

Advertisements
Track Severe Weather on mobile